Terminal Aerodrome Forecast
Issued by NWS

Home | Current Version | Previous Version | Graphics & Text | Print | Product List | Glossary On
Versions: 1 2 3 4 5 6 7 8 9 10 11 12 13 14 15 16 17 18 19
000
FTUS43 KICT 231730
TAFRSL
TAF
KRSL 231730Z 2318/2418 13015G22KT P6SM OVC035
     FM240300 14017G24KT P6SM VCTS SCT009 OVC015CB
     FM240900 15014KT 5SM -DZ BR OVC010
     FM241200 15012G22KT P6SM OVC009=

USA.gov is the U.S. government's official web portal to all federal, state and local government web resources and services.